Monterey, Kentucky
Current Conditions -  °F | °C
As of 5:53 PM on Monday 22 Dec 2014 (Local Time) from KFFT Reporting Station
Broken Clouds Broken Clouds  
Wind Chill: 50°   Ceiling: 3900
Heat Index: 50°   Visibility: 10mi
Dew Point: 40°   Wind: 7mph
Humidity: 68%   Direction: 110°ESE
Pressure: 29.77"   Gusts: NA
Location:  38.4804°N, 84.8067°W
Report Text: KFFT 222253Z AUTO 11006KT 10SM BKN039 BKN100 10/04 A2977 RMK AO2 SLP082 T01000044
Loading
Personal Weather Stations






























Interactive Weather Map New forecast layout! Learn more

10-Day Weather Forecast

Advertisements
Track Severe Weather on mobile